Helsinko, Finnlando

01:58 EET je la 25an de novembro 2017 (GMT +0200)
dragracing@weather | | Change Station

Elev 111 ft 60.30 °N, 24.88 °E | Updated 3 seconds ago

Light Rain
Maldensa pluvo
39.0 °F
Sentas kiel 33 °F
N
8.7
Vento Varianta Vento from Sudo
Gusts 14.3 mej/h

hodiaŭ
High -- | Low -- °F
--% Ebla precip.
hieraŭ
High -- | Low -- °F
Precip. -- co
Aerpremo 29.68 co
Vidodistanco 6.2 mejloj
Nuboj Malmultaj 500 ft
Pliparte nuba 800 ft
Pliparte nuba 1200 ft
Venta
kvazaŭtemperaturo
33 °F
Rosopunkto 39 °F
Humido 99%
Pluvokvanto 0.05 co
Neĝprofundo Not available.
8:45 AM 3:29 PM
Kreskanta Lunarko, 34% visible
METAR EFHK 242350Z 17011KT 9999 -RA FEW005 BKN008 BKN012 04/03 Q1005 NOSIG
Aerpremo 29.68 co
Vidodistanco 6.2 mejloj
Nuboj Malmultaj 500 ft
Pliparte nuba 800 ft
Pliparte nuba 1200 ft
Venta
kvazaŭtemperaturo
33 °F
Rosopunkto 39 °F
Humido 99%
Pluvokvanto 0.05 co
Neĝprofundo Not available.
8:45 AM 3:29 PM
Kreskanta Lunarko, 34% visible
METAR EFHK 242350Z 17011KT 9999 -RA FEW005 BKN008 BKN012 04/03 Q1005 NOSIG

Get Severe Weather Alerts

Thanks for signing up!

Be on the lookout for a verification email in your inbox.

You'll start receiving the daily forecast at 6 AM.

×

10-Day Weather Forecast

×

Almanac

Astronomio

Nov. 25, 2017 Leviĝo Subiro
Aktuala tempo
Civila krepusko
Naŭtika krepusko
Astronomia krepusko
Luno
Daŭro de videbla lumo
Daŭro de tago
Tomorrow will be .
, % of the Moon is Illuminated

Hodiaŭaj ekstremaĵoj

Country Highs Country Lows

Community

WunderPhotos

Category 6

Welcome to Category 6. This is the collective home for Weather Underground's featured writeups by Dr. Jeff Masters (right), Bob Henson (left), Chris Burt, and other regular contributors.

Nearby

Aerkvalito

  Aerkvalito Aerkvalita indico Poluanto
Not available.

Neĝa profundeco

Station Depth Alteco

Earthquake Activity

Urbo Distance Mag. Time & Date
Minimum magnitude displayed is 2.5.

Coastal Water Temperatures

Loko Temperaturo

Stations

Najbaraj veter-stacioj

Loko de stacio Temp Venta
kvazaŭtemperaturo
Rosopunkto Humido Vento Precip. Elev Ĝisdatigita je Tipo